sensor_id;sensor_type;location;lat;lon;timestamp;pressure;altitude;pressure_sealevel;temperature;humidity
62508;BME280;48556;51.972;4.624;2023-01-28T00:02:34;103019.72;;;7.84;61.42
62508;BME280;48556;51.972;4.624;2023-01-28T00:05:18;103020.63;;;7.84;61.52
62508;BME280;48556;51.972;4.624;2023-01-28T00:07:44;103015.56;;;7.41;62.73
62508;BME280;48556;51.972;4.624;2023-01-28T00:10:10;103023.16;;;7.33;62.84
62508;BME280;48556;51.972;4.624;2023-01-28T00:12:35;103021.84;;;7.20;62.60
62508;BME280;48556;51.972;4.624;2023-01-28T00:15:10;103025.31;;;7.45;61.84
62508;BME280;48556;51.972;4.624;2023-01-28T00:17:58;103023.50;;;7.66;62.15
62508;BME280;48556;51.972;4.624;2023-01-28T00:20:32;103021.97;;;7.73;60.62
62508;BME280;48556;51.972;4.624;2023-01-28T00:23:14;103020.94;;;7.44;62.19
62508;BME280;48556;51.972;4.624;2023-01-28T00:25:41;103016.00;;;7.27;62.21
62508;BME280;48556;51.972;4.624;2023-01-28T00:28:07;103015.25;;;6.62;63.42
62508;BME280;48556;51.972;4.624;2023-01-28T00:30:33;103025.75;;;6.41;64.52
62508;BME280;48556;51.972;4.624;2023-01-28T00:32:58;103020.66;;;6.89;63.52
62508;BME280;48556;51.972;4.624;2023-01-28T00:35:28;103024.03;;;6.64;65.25
62508;BME280;48556;51.972;4.624;2023-01-28T00:38:21;103018.72;;;7.30;63.25
62508;BME280;48556;51.972;4.624;2023-01-28T00:41:08;103017.31;;;7.16;63.73
62508;BME280;48556;51.972;4.624;2023-01-28T00:43:50;103021.81;;;7.44;62.71
62508;BME280;48556;51.972;4.624;2023-01-28T00:46:16;103015.00;;;7.74;61.85
62508;BME280;48556;51.972;4.624;2023-01-28T00:49:07;103022.34;;;7.34;61.62
62508;BME280;48556;51.972;4.624;2023-01-28T00:51:39;103027.84;;;7.42;62.06
62508;BME280;48556;51.972;4.624;2023-01-28T00:54:05;103020.03;;;7.43;62.03
62508;BME280;48556;51.972;4.624;2023-01-28T00:56:31;103013.75;;;7.88;61.26
62508;BME280;48556;51.972;4.624;2023-01-28T00:59:07;103019.31;;;7.23;62.43
62508;BME280;48556;51.972;4.624;2023-01-28T01:01:32;103019.72;;;7.34;63.31
62508;BME280;48556;51.972;4.624;2023-01-28T01:04:04;103012.91;;;7.39;62.39
62508;BME280;48556;51.972;4.624;2023-01-28T01:06:39;103019.28;;;7.22;63.19
62508;BME280;48556;51.972;4.624;2023-01-28T01:09:14;103016.31;;;7.36;63.14
62508;BME280;48556;51.972;4.624;2023-01-28T01:12:02;103014.38;;;7.81;60.79
62508;BME280;48556;51.972;4.624;2023-01-28T01:14:34;103015.97;;;7.51;60.52
62508;BME280;48556;51.972;4.624;2023-01-28T01:17:00;103012.69;;;7.33;61.20
62508;BME280;48556;51.972;4.624;2023-01-28T01:19:25;103022.50;;;6.69;63.32
62508;BME280;48556;51.972;4.624;2023-01-28T01:22:12;103018.81;;;6.64;63.71
62508;BME280;48556;51.972;4.624;2023-01-28T01:24:47;103026.13;;;6.95;62.02
62508;BME280;48556;51.972;4.624;2023-01-28T01:27:13;103028.03;;;6.54;63.07
62508;BME280;48556;51.972;4.624;2023-01-28T01:29:43;103028.72;;;6.50;63.09
62508;BME280;48556;51.972;4.624;2023-01-28T01:32:24;103022.78;;;7.22;61.55
62508;BME280;48556;51.972;4.624;2023-01-28T01:35:06;103019.41;;;7.75;59.80
62508;BME280;48556;51.972;4.624;2023-01-28T01:37:33;103014.38;;;7.55;59.66
62508;BME280;48556;51.972;4.624;2023-01-28T01:40:00;103011.47;;;7.47;60.41
62508;BME280;48556;51.972;4.624;2023-01-28T01:42:32;103011.03;;;7.85;59.47
62508;BME280;48556;51.972;4.624;2023-01-28T01:45:04;103014.63;;;7.63;59.32
62508;BME280;48556;51.972;4.624;2023-01-28T01:52:57;103010.94;;;7.82;59.73
62508;BME280;48556;51.972;4.624;2023-01-28T01:55:34;103012.25;;;7.45;60.25
62508;BME280;48556;51.972;4.624;2023-01-28T01:58:06;103015.00;;;7.74;60.54
62508;BME280;48556;51.972;4.624;2023-01-28T02:00:32;103015.84;;;7.73;60.37
62508;BME280;48556;51.972;4.624;2023-01-28T02:03:26;103012.31;;;8.24;58.80
62508;BME280;48556;51.972;4.624;2023-01-28T02:06:01;103015.72;;;8.21;58.39
62508;BME280;48556;51.972;4.624;2023-01-28T02:08:35;103013.00;;;8.18;58.46
62508;BME280;48556;51.972;4.624;2023-01-28T02:11:06;103016.16;;;8.35;58.10
62508;BME280;48556;51.972;4.624;2023-01-28T02:13:46;103011.88;;;8.38;57.71
62508;BME280;48556;51.972;4.624;2023-01-28T02:16:29;103013.41;;;8.30;57.71
62508;BME280;48556;51.972;4.624;2023-01-28T02:19:17;103005.22;;;8.21;58.32
62508;BME280;48556;51.972;4.624;2023-01-28T02:25:05;103025.88;;;8.37;57.49
62508;BME280;48556;51.972;4.624;2023-01-28T02:30:39;103033.09;;;8.45;57.00
62508;BME280;48556;51.972;4.624;2023-01-28T02:33:28;103040.72;;;8.64;56.24
62508;BME280;48556;51.972;4.624;2023-01-28T02:36:17;103041.69;;;8.41;57.19
62508;BME280;48556;51.972;4.624;2023-01-28T02:38:49;103039.22;;;8.45;57.28
62508;BME280;48556;51.972;4.624;2023-01-28T02:41:36;103043.81;;;7.99;57.94
62508;BME280;48556;51.972;4.624;2023-01-28T02:44:08;103043.78;;;8.51;56.97
62508;BME280;48556;51.972;4.624;2023-01-28T02:46:40;103032.66;;;7.79;58.81
62508;BME280;48556;51.972;4.624;2023-01-28T02:55:17;103027.66;;;8.13;58.73
62508;BME280;48556;51.972;4.624;2023-01-28T02:58:38;103035.63;;;8.16;59.00
62508;BME280;48556;51.972;4.624;2023-01-28T03:01:18;103024.06;;;8.36;58.46
62508;BME280;48556;51.972;4.624;2023-01-28T03:06:41;103027.16;;;8.25;58.53
62508;BME280;48556;51.972;4.624;2023-01-28T03:09:11;103024.97;;;8.10;59.13
62508;BME280;48556;51.972;4.624;2023-01-28T03:11:57;103030.28;;;8.13;59.73
62508;BME280;48556;51.972;4.624;2023-01-28T03:14:50;103028.94;;;7.98;59.69
62508;BME280;48556;51.972;4.624;2023-01-28T03:17:48;103037.31;;;8.14;60.19
62508;BME280;48556;51.972;4.624;2023-01-28T03:21:05;103038.69;;;8.02;60.53
62508;BME280;48556;51.972;4.624;2023-01-28T03:24:11;103032.09;;;8.14;60.37
62508;BME280;48556;51.972;4.624;2023-01-28T03:27:07;103033.47;;;8.02;60.00
62508;BME280;48556;51.972;4.624;2023-01-28T03:30:00;103021.16;;;7.50;60.24
62508;BME280;48556;51.972;4.624;2023-01-28T03:32:47;103027.84;;;7.17;60.91
62508;BME280;48556;51.972;4.624;2023-01-28T03:35:36;103046.28;;;6.75;62.98
62508;BME280;48556;51.972;4.624;2023-01-28T03:38:20;103045.88;;;6.64;61.74
62508;BME280;48556;51.972;4.624;2023-01-28T03:41:03;103031.00;;;6.86;61.48
62508;BME280;48556;51.972;4.624;2023-01-28T03:43:35;103033.00;;;6.93;62.15
62508;BME280;48556;51.972;4.624;2023-01-28T03:46:09;103039.28;;;7.21;60.24
62508;BME280;48556;51.972;4.624;2023-01-28T03:48:35;103025.53;;;7.27;59.73
62508;BME280;48556;51.972;4.624;2023-01-28T03:51:00;103032.34;;;6.99;60.56
62508;BME280;48556;51.972;4.624;2023-01-28T03:53:29;103025.78;;;6.86;61.57
62508;BME280;48556;51.972;4.624;2023-01-28T03:56:00;103023.53;;;6.73;61.29
62508;BME280;48556;51.972;4.624;2023-01-28T03:58:35;103036.44;;;6.47;62.14
62508;BME280;48556;51.972;4.624;2023-01-28T04:01:19;103041.56;;;6.23;62.87
62508;BME280;48556;51.972;4.624;2023-01-28T04:04:13;103043.31;;;6.89;59.85
62508;BME280;48556;51.972;4.624;2023-01-28T04:07:10;103064.72;;;7.01;59.22
62508;BME280;48556;51.972;4.624;2023-01-28T04:09:43;103062.03;;;7.22;58.80
62508;BME280;48556;51.972;4.624;2023-01-28T04:12:09;103059.25;;;7.42;58.40
62508;BME280;48556;51.972;4.624;2023-01-28T04:14:37;103061.25;;;7.25;58.23
62508;BME280;48556;51.972;4.624;2023-01-28T04:17:05;103068.59;;;6.88;60.22
62508;BME280;48556;51.972;4.624;2023-01-28T04:19:46;103054.28;;;7.25;59.09
62508;BME280;48556;51.972;4.624;2023-01-28T04:22:14;103055.31;;;7.06;60.02
62508;BME280;48556;51.972;4.624;2023-01-28T04:24:44;103063.91;;;7.26;59.28
62508;BME280;48556;51.972;4.624;2023-01-28T04:27:12;103066.00;;;7.59;58.78
62508;BME280;48556;51.972;4.624;2023-01-28T04:29:37;103066.22;;;7.65;58.06
62508;BME280;48556;51.972;4.624;2023-01-28T04:32:10;103066.94;;;7.61;58.08
62508;BME280;48556;51.972;4.624;2023-01-28T04:34:35;103078.13;;;7.33;59.49
62508;BME280;48556;51.972;4.624;2023-01-28T04:37:01;103070.06;;;7.51;59.34
62508;BME280;48556;51.972;4.624;2023-01-28T04:39:31;103070.34;;;7.34;59.36
62508;BME280;48556;51.972;4.624;2023-01-28T04:41:57;103057.69;;;7.47;59.45
62508;BME280;48556;51.972;4.624;2023-01-28T04:44:23;103057.09;;;7.80;58.19
62508;BME280;48556;51.972;4.624;2023-01-28T04:46:59;103051.03;;;7.55;58.37
62508;BME280;48556;51.972;4.624;2023-01-28T04:49:25;103048.25;;;7.52;57.81
62508;BME280;48556;51.972;4.624;2023-01-28T04:51:51;103045.09;;;7.36;58.38
62508;BME280;48556;51.972;4.624;2023-01-28T04:54:20;103047.19;;;6.76;59.29
62508;BME280;48556;51.972;4.624;2023-01-28T04:57:09;103044.53;;;7.21;58.16
62508;BME280;48556;51.972;4.624;2023-01-28T04:59:40;103049.91;;;7.01;58.25
62508;BME280;48556;51.972;4.624;2023-01-28T05:02:06;103045.75;;;7.31;57.76
62508;BME280;48556;51.972;4.624;2023-01-28T05:04:33;103051.91;;;7.31;57.74
62508;BME280;48556;51.972;4.624;2023-01-28T05:06:58;103051.81;;;6.60;59.49
62508;BME280;48556;51.972;4.624;2023-01-28T05:09:24;103053.34;;;6.78;58.67
62508;BME280;48556;51.972;4.624;2023-01-28T05:11:49;103049.75;;;7.21;56.55
62508;BME280;48556;51.972;4.624;2023-01-28T05:14:15;103055.59;;;7.61;55.43
62508;BME280;48556;51.972;4.624;2023-01-28T05:16:45;103071.19;;;6.88;57.05
62508;BME280;48556;51.972;4.624;2023-01-28T05:19:34;103068.78;;;7.17;57.06
62508;BME280;48556;51.972;4.624;2023-01-28T05:22:18;103055.03;;;7.45;56.04
62508;BME280;48556;51.972;4.624;2023-01-28T05:24:44;103061.66;;;7.13;56.86
62508;BME280;48556;51.972;4.624;2023-01-28T05:27:10;103059.56;;;7.27;57.21
62508;BME280;48556;51.972;4.624;2023-01-28T05:29:39;103060.13;;;7.18;57.77
62508;BME280;48556;51.972;4.624;2023-01-28T05:32:04;103064.03;;;7.29;57.32
62508;BME280;48556;51.972;4.624;2023-01-28T05:34:40;103055.81;;;7.43;57.46
62508;BME280;48556;51.972;4.624;2023-01-28T05:37:22;103054.19;;;6.99;58.06
62508;BME280;48556;51.972;4.624;2023-01-28T05:39:48;103053.22;;;7.20;57.07
62508;BME280;48556;51.972;4.624;2023-01-28T05:42:14;103056.09;;;7.04;57.51
62508;BME280;48556;51.972;4.624;2023-01-28T05:44:41;103051.81;;;6.60;58.42
62508;BME280;48556;51.972;4.624;2023-01-28T05:47:07;103052.47;;;7.00;58.27
62508;BME280;48556;51.972;4.624;2023-01-28T05:49:33;103048.00;;;6.97;57.40
62508;BME280;48556;51.972;4.624;2023-01-28T05:51:58;103051.34;;;7.16;57.02
62508;BME280;48556;51.972;4.624;2023-01-28T05:54:25;103054.63;;;7.10;57.02
62508;BME280;48556;51.972;4.624;2023-01-28T05:56:51;103050.97;;;7.07;56.81
62508;BME280;48556;51.972;4.624;2023-01-28T05:59:16;103051.22;;;6.90;58.44
62508;BME280;48556;51.972;4.624;2023-01-28T06:01:50;103052.06;;;7.12;57.83
62508;BME280;48556;51.972;4.624;2023-01-28T06:04:22;103058.22;;;7.14;57.05
62508;BME280;48556;51.972;4.624;2023-01-28T06:06:48;103063.88;;;7.25;57.49
62508;BME280;48556;51.972;4.624;2023-01-28T06:09:14;103056.31;;;7.57;56.34
62508;BME280;48556;51.972;4.624;2023-01-28T06:11:39;103052.28;;;7.66;55.92
62508;BME280;48556;51.972;4.624;2023-01-28T06:14:05;103051.56;;;7.70;55.51
62508;BME280;48556;51.972;4.624;2023-01-28T06:16:30;103050.88;;;7.28;56.50
62508;BME280;48556;51.972;4.624;2023-01-28T06:18:56;103065.81;;;7.79;55.45
62508;BME280;48556;51.972;4.624;2023-01-28T06:21:28;103064.41;;;7.64;56.01
62508;BME280;48556;51.972;4.624;2023-01-28T06:23:54;103058.69;;;7.26;56.85
62508;BME280;48556;51.972;4.624;2023-01-28T06:26:27;103069.53;;;6.90;57.64
62508;BME280;48556;51.972;4.624;2023-01-28T06:28:52;103061.81;;;7.40;55.43
62508;BME280;48556;51.972;4.624;2023-01-28T06:31:18;103060.81;;;7.61;54.81
62508;BME280;48556;51.972;4.624;2023-01-28T06:34:01;103074.41;;;7.75;54.19
62508;BME280;48556;51.972;4.624;2023-01-28T06:36:28;103074.75;;;7.35;55.80
62508;BME280;48556;51.972;4.624;2023-01-28T06:38:53;103078.06;;;7.56;55.51
62508;BME280;48556;51.972;4.624;2023-01-28T06:41:34;103082.19;;;6.58;57.10
62508;BME280;48556;51.972;4.624;2023-01-28T06:43:59;103074.63;;;6.87;56.58
62508;BME280;48556;51.972;4.624;2023-01-28T06:46:47;103073.56;;;7.27;55.17
62508;BME280;48556;51.972;4.624;2023-01-28T06:49:20;103076.97;;;7.73;54.75
62508;BME280;48556;51.972;4.624;2023-01-28T06:52:01;103073.34;;;7.95;54.32
62508;BME280;48556;51.972;4.624;2023-01-28T06:54:32;103078.81;;;8.01;53.91
62508;BME280;48556;51.972;4.624;2023-01-28T06:56:58;103087.25;;;8.18;53.56
62508;BME280;48556;51.972;4.624;2023-01-28T06:59:23;103083.63;;;8.15;53.27
62508;BME280;48556;51.972;4.624;2023-01-28T07:01:49;103079.16;;;8.11;53.83
62508;BME280;48556;51.972;4.624;2023-01-28T07:04:14;103070.16;;;8.30;53.72
62508;BME280;48556;51.972;4.624;2023-01-28T07:06:56;103079.94;;;8.08;53.95
62508;BME280;48556;51.972;4.624;2023-01-28T07:09:22;103084.25;;;8.08;53.52
62508;BME280;48556;51.972;4.624;2023-01-28T07:11:48;103090.09;;;7.99;54.81
62508;BME280;48556;51.972;4.624;2023-01-28T07:14:13;103090.56;;;7.87;55.33
62508;BME280;48556;51.972;4.624;2023-01-28T07:16:39;103080.59;;;7.52;54.40
62508;BME280;48556;51.972;4.624;2023-01-28T07:19:04;103093.00;;;7.82;53.60
62508;BME280;48556;51.972;4.624;2023-01-28T07:21:31;103089.09;;;7.71;53.46
62508;BME280;48556;51.972;4.624;2023-01-28T07:24:01;103086.22;;;7.16;55.25
62508;BME280;48556;51.972;4.624;2023-01-28T07:26:41;103084.97;;;7.07;55.66
62508;BME280;48556;51.972;4.624;2023-01-28T07:29:08;103095.91;;;7.42;54.65
62508;BME280;48556;51.972;4.624;2023-01-28T07:31:33;103096.63;;;7.15;55.20
62508;BME280;48556;51.972;4.624;2023-01-28T07:33:58;103091.41;;;7.15;55.13
62508;BME280;48556;51.972;4.624;2023-01-28T07:36:24;103083.31;;;7.31;55.28
62508;BME280;48556;51.972;4.624;2023-01-28T07:38:50;103085.47;;;7.43;55.30
62508;BME280;48556;51.972;4.624;2023-01-28T07:41:15;103082.44;;;7.32;56.40
62508;BME280;48556;51.972;4.624;2023-01-28T07:43:41;103086.56;;;6.80;57.30
62508;BME280;48556;51.972;4.624;2023-01-28T07:46:07;103088.69;;;7.12;57.38
62508;BME280;48556;51.972;4.624;2023-01-28T07:48:32;103082.84;;;7.19;56.96
62508;BME280;48556;51.972;4.624;2023-01-28T07:50:59;103089.84;;;6.97;57.67
62508;BME280;48556;51.972;4.624;2023-01-28T07:53:26;103092.69;;;7.26;57.33
62508;BME280;48556;51.972;4.624;2023-01-28T07:55:51;103104.94;;;7.05;57.38
62508;BME280;48556;51.972;4.624;2023-01-28T07:58:19;103099.25;;;6.92;57.81
62508;BME280;48556;51.972;4.624;2023-01-28T08:00:45;103099.75;;;6.83;58.35
62508;BME280;48556;51.972;4.624;2023-01-28T08:03:13;103097.75;;;6.99;57.62
62508;BME280;48556;51.972;4.624;2023-01-28T08:05:49;103090.28;;;7.08;57.54
62508;BME280;48556;51.972;4.624;2023-01-28T08:08:16;103103.06;;;7.23;56.38
62508;BME280;48556;51.972;4.624;2023-01-28T08:10:42;103095.53;;;7.32;56.60
62508;BME280;48556;51.972;4.624;2023-01-28T08:13:12;103103.81;;;7.21;57.24
62508;BME280;48556;51.972;4.624;2023-01-28T08:15:39;103104.06;;;7.04;58.24
62508;BME280;48556;51.972;4.624;2023-01-28T08:18:07;103108.19;;;6.76;58.03
62508;BME280;48556;51.972;4.624;2023-01-28T08:20:34;103105.78;;;6.81;58.47
62508;BME280;48556;51.972;4.624;2023-01-28T08:25:36;103108.94;;;6.51;59.33
62508;BME280;48556;51.972;4.624;2023-01-28T08:28:02;103119.47;;;7.19;57.24
62508;BME280;48556;51.972;4.624;2023-01-28T08:30:28;103117.31;;;7.09;57.87
62508;BME280;48556;51.972;4.624;2023-01-28T08:32:56;103118.16;;;7.30;57.86
62508;BME280;48556;51.972;4.624;2023-01-28T08:35:27;103125.56;;;6.74;59.17
62508;BME280;48556;51.972;4.624;2023-01-28T08:38:03;103131.63;;;6.52;59.93
62508;BME280;48556;51.972;4.624;2023-01-28T08:40:29;103145.81;;;7.01;58.56
62508;BME280;48556;51.972;4.624;2023-01-28T08:42:55;103144.94;;;7.23;58.42
62508;BME280;48556;51.972;4.624;2023-01-28T08:45:24;103145.47;;;7.61;56.78
62508;BME280;48556;51.972;4.624;2023-01-28T08:47:55;103157.97;;;7.68;55.67
62508;BME280;48556;51.972;4.624;2023-01-28T08:50:22;103160.41;;;7.64;56.20
62508;BME280;48556;51.972;4.624;2023-01-28T08:52:55;103153.00;;;8.00;54.81
62508;BME280;48556;51.972;4.624;2023-01-28T08:55:22;103153.31;;;8.08;54.02
62508;BME280;48556;51.972;4.624;2023-01-28T08:57:47;103158.16;;;7.97;54.22
62508;BME280;48556;51.972;4.624;2023-01-28T09:00:13;103151.84;;;8.16;53.53
62508;BME280;48556;51.972;4.624;2023-01-28T09:02:39;103164.00;;;7.90;54.24
62508;BME280;48556;51.972;4.624;2023-01-28T09:05:07;103161.72;;;7.75;54.55
62508;BME280;48556;51.972;4.624;2023-01-28T09:07:34;103155.63;;;8.00;54.14
62508;BME280;48556;51.972;4.624;2023-01-28T09:10:00;103153.63;;;7.93;53.92
62508;BME280;48556;51.972;4.624;2023-01-28T09:12:27;103164.41;;;8.01;53.37
62508;BME280;48556;51.972;4.624;2023-01-28T09:14:52;103169.72;;;7.56;54.51
62508;BME280;48556;51.972;4.624;2023-01-28T09:17:20;103161.34;;;7.89;53.97
62508;BME280;48556;51.972;4.624;2023-01-28T09:19:45;103168.84;;;7.79;54.17
62508;BME280;48556;51.972;4.624;2023-01-28T09:22:12;103165.75;;;7.43;55.49
62508;BME280;48556;51.972;4.624;2023-01-28T09:24:37;103178.97;;;7.70;55.95
62508;BME280;48556;51.972;4.624;2023-01-28T09:27:04;103185.94;;;7.94;55.70
62508;BME280;48556;51.972;4.624;2023-01-28T09:29:29;103181.09;;;7.33;56.46
62508;BME280;48556;51.972;4.624;2023-01-28T09:31:57;103197.38;;;7.49;56.12
62508;BME280;48556;51.972;4.624;2023-01-28T09:34:22;103201.75;;;7.73;55.23
62508;BME280;48556;51.972;4.624;2023-01-28T09:36:48;103198.84;;;8.12;54.16
62508;BME280;48556;51.972;4.624;2023-01-28T09:39:13;103193.03;;;8.45;52.55
62508;BME280;48556;51.972;4.624;2023-01-28T09:47:03;103202.94;;;8.53;53.01
62508;BME280;48556;51.972;4.624;2023-01-28T09:49:44;103194.88;;;8.47;52.21
62508;BME280;48556;51.972;4.624;2023-01-28T09:52:16;103186.00;;;7.95;53.76
62508;BME280;48556;51.972;4.624;2023-01-28T09:54:58;103193.69;;;8.39;52.53
62508;BME280;48556;51.972;4.624;2023-01-28T09:57:41;103197.34;;;7.94;54.08
62508;BME280;48556;51.972;4.624;2023-01-28T10:00:15;103197.28;;;8.43;52.49
62508;BME280;48556;51.972;4.624;2023-01-28T10:11:24;103214.63;;;7.66;53.74
62508;BME280;48556;51.972;4.624;2023-01-28T10:16:48;103229.19;;;7.82;52.96
62508;BME280;48556;51.972;4.624;2023-01-28T10:19:27;103211.22;;;7.92;52.48
62508;BME280;48556;51.972;4.624;2023-01-28T10:22:01;103206.69;;;7.19;54.96
62508;BME280;48556;51.972;4.624;2023-01-28T10:24:32;103209.84;;;7.11;56.09
62508;BME280;48556;51.972;4.624;2023-01-28T10:27:11;103205.81;;;7.64;55.28
62508;BME280;48556;51.972;4.624;2023-01-28T10:29:39;103201.97;;;8.01;53.81
62508;BME280;48556;51.972;4.624;2023-01-28T10:32:30;103206.75;;;7.21;54.21
62508;BME280;48556;51.972;4.624;2023-01-28T10:35:15;103203.34;;;7.67;54.13
62508;BME280;48556;51.972;4.624;2023-01-28T10:37:41;103194.16;;;7.79;53.52
62508;BME280;48556;51.972;4.624;2023-01-28T10:40:14;103195.25;;;7.39;53.98
62508;BME280;48556;51.972;4.624;2023-01-28T10:42:40;103196.28;;;7.21;54.27
62508;BME280;48556;51.972;4.624;2023-01-28T10:45:30;103192.13;;;7.49;53.99
62508;BME280;48556;51.972;4.624;2023-01-28T10:50:34;103196.66;;;7.30;53.88
62508;BME280;48556;51.972;4.624;2023-01-28T10:53:04;103182.50;;;7.25;54.45
62508;BME280;48556;51.972;4.624;2023-01-28T10:55:53;103192.63;;;7.39;55.72
62508;BME280;48556;51.972;4.624;2023-01-28T10:58:23;103190.13;;;7.42;55.59
62508;BME280;48556;51.972;4.624;2023-01-28T11:00:58;103179.69;;;7.66;54.81
62508;BME280;48556;51.972;4.624;2023-01-28T11:03:26;103166.47;;;7.16;55.40
62508;BME280;48556;51.972;4.624;2023-01-28T11:06:22;103157.13;;;7.45;54.74
62508;BME280;48556;51.972;4.624;2023-01-28T11:08:48;103142.97;;;7.17;54.53
62508;BME280;48556;51.972;4.624;2023-01-28T11:11:24;103138.91;;;7.73;53.67
62508;BME280;48556;51.972;4.624;2023-01-28T11:13:50;103136.91;;;7.90;53.25
62508;BME280;48556;51.972;4.624;2023-01-28T11:16:19;103128.78;;;7.58;53.41
62508;BME280;48556;51.972;4.624;2023-01-28T11:18:53;103113.03;;;7.33;54.53
62508;BME280;48556;51.972;4.624;2023-01-28T11:21:24;103113.38;;;6.97;55.55
62508;BME280;48556;51.972;4.624;2023-01-28T11:24:05;103107.56;;;7.27;55.32
62508;BME280;48556;51.972;4.624;2023-01-28T11:26:35;103115.19;;;7.44;55.28
62508;BME280;48556;51.972;4.624;2023-01-28T11:29:03;103089.84;;;7.91;53.96
62508;BME280;48556;51.972;4.624;2023-01-28T11:31:38;103091.59;;;7.92;53.79
62508;BME280;48556;51.972;4.624;2023-01-28T11:34:06;103092.59;;;7.72;53.82
62508;BME280;48556;51.972;4.624;2023-01-28T11:36:34;103079.41;;;7.44;55.00
62508;BME280;48556;51.972;4.624;2023-01-28T11:39:01;103073.06;;;7.86;53.87
62508;BME280;48556;51.972;4.624;2023-01-28T11:41:30;103064.03;;;7.78;53.76
62508;BME280;48556;51.972;4.624;2023-01-28T11:44:18;103062.41;;;7.57;56.12
62508;BME280;48556;51.972;4.624;2023-01-28T12:09:11;103107.22;;;8.66;51.71
62508;BME280;48556;51.972;4.624;2023-01-28T12:11:50;103093.19;;;8.13;53.69
62508;BME280;48556;51.972;4.624;2023-01-28T12:15:01;103094.50;;;8.00;53.63
62508;BME280;48556;51.972;4.624;2023-01-28T12:31:08;103130.31;;;8.51;52.93
62508;BME280;48556;51.972;4.624;2023-01-28T12:39:20;103109.94;;;8.44;51.70
62508;BME280;48556;51.972;4.624;2023-01-28T12:42:03;103109.50;;;8.55;51.37
62508;BME280;48556;51.972;4.624;2023-01-28T12:44:39;103107.13;;;8.12;51.46
62508;BME280;48556;51.972;4.624;2023-01-28T12:47:23;103095.25;;;8.23;51.22
62508;BME280;48556;51.972;4.624;2023-01-28T12:50:00;103089.59;;;8.62;50.56
62508;BME280;48556;51.972;4.624;2023-01-28T12:52:41;103078.25;;;8.91;51.16
62508;BME280;48556;51.972;4.624;2023-01-28T12:57:56;103049.53;;;9.88;50.00
62508;BME280;48556;51.972;4.624;2023-01-28T13:00:38;103036.22;;;10.90;46.69
62508;BME280;48556;51.972;4.624;2023-01-28T13:05:58;103015.47;;;14.02;39.76
62508;BME280;48556;51.972;4.624;2023-01-28T13:08:27;103014.38;;;15.11;36.37
62508;BME280;48556;51.972;4.624;2023-01-28T13:10:56;103014.19;;;17.45;33.50
62508;BME280;48556;51.972;4.624;2023-01-28T13:13:45;103011.56;;;19.23;30.20
62508;BME280;48556;51.972;4.624;2023-01-28T13:16:12;103019.69;;;20.29;28.35
62508;BME280;48556;51.972;4.624;2023-01-28T13:21:33;103022.81;;;23.12;25.39
62508;BME280;48556;51.972;4.624;2023-01-28T13:24:23;103031.34;;;24.60;22.69
62508;BME280;48556;51.972;4.624;2023-01-28T13:26:57;103026.63;;;25.60;21.31
62508;BME280;48556;51.972;4.624;2023-01-28T13:31:54;103019.16;;;26.92;19.05
62508;BME280;48556;51.972;4.624;2023-01-28T13:34:35;103023.47;;;27.52;18.59
62508;BME280;48556;51.972;4.624;2023-01-28T13:37:33;103021.00;;;27.28;17.77
62508;BME280;48556;51.972;4.624;2023-01-28T13:40:21;103016.41;;;28.21;18.09
62508;BME280;48556;51.972;4.624;2023-01-28T13:42:58;103023.31;;;26.18;17.79
62508;BME280;48556;51.972;4.624;2023-01-28T13:45:29;103014.59;;;27.31;17.78
62508;BME280;48556;51.972;4.624;2023-01-28T13:48:21;103021.09;;;27.26;17.70
62508;BME280;48556;51.972;4.624;2023-01-28T13:50:51;103031.25;;;27.02;18.11
62508;BME280;48556;51.972;4.624;2023-01-28T13:56:19;103042.50;;;25.22;19.49
62508;BME280;48556;51.972;4.624;2023-01-28T14:20:49;103040.53;;;20.09;25.41
62508;BME280;48556;51.972;4.624;2023-01-28T14:23:21;103047.38;;;19.04;26.77
62508;BME280;48556;51.972;4.624;2023-01-28T14:25:58;103044.41;;;18.49;27.74
62508;BME280;48556;51.972;4.624;2023-01-28T14:31:10;103036.63;;;16.68;30.85
62508;BME280;48556;51.972;4.624;2023-01-28T14:33:39;103034.84;;;16.67;30.63
62508;BME280;48556;51.972;4.624;2023-01-28T14:36:05;103039.28;;;16.48;30.45
62508;BME280;48556;51.972;4.624;2023-01-28T14:38:39;103030.41;;;15.54;33.20
62508;BME280;48556;51.972;4.624;2023-01-28T14:41:08;103025.94;;;15.47;32.00
62508;BME280;48556;51.972;4.624;2023-01-28T14:43:37;103016.13;;;15.08;33.34
62508;BME280;48556;51.972;4.624;2023-01-28T14:52:01;103033.13;;;13.24;36.18
62508;BME280;48556;51.972;4.624;2023-01-28T14:57:46;103035.38;;;12.93;37.43
62508;BME280;48556;51.972;4.624;2023-01-28T15:00:29;103034.56;;;12.97;38.03
62508;BME280;48556;51.972;4.624;2023-01-28T15:02:55;103045.53;;;12.63;39.86
62508;BME280;48556;51.972;4.624;2023-01-28T15:05:28;103040.78;;;12.39;41.41
62508;BME280;48556;51.972;4.624;2023-01-28T15:08:42;103057.47;;;12.38;41.01
62508;BME280;48556;51.972;4.624;2023-01-28T15:11:29;103050.81;;;12.08;40.67
62508;BME280;48556;51.972;4.624;2023-01-28T15:14:14;103054.69;;;12.32;40.10
62508;BME280;48556;51.972;4.624;2023-01-28T15:17:41;103060.13;;;11.89;41.40
62508;BME280;48556;51.972;4.624;2023-01-28T15:21:00;103053.47;;;11.62;41.99
62508;BME280;48556;51.972;4.624;2023-01-28T15:23:49;103058.50;;;11.94;41.45
62508;BME280;48556;51.972;4.624;2023-01-28T15:27:04;103063.56;;;11.85;41.57
62508;BME280;48556;51.972;4.624;2023-01-28T15:30:26;103076.34;;;11.65;42.03
62508;BME280;48556;51.972;4.624;2023-01-28T15:37:15;103090.47;;;11.26;43.53
62508;BME280;48556;51.972;4.624;2023-01-28T15:43:59;103051.34;;;11.02;44.04
62508;BME280;48556;51.972;4.624;2023-01-28T15:47:27;103056.81;;;11.09;43.94
62508;BME280;48556;51.972;4.624;2023-01-28T15:54:20;103065.91;;;10.84;44.82
62508;BME280;48556;51.972;4.624;2023-01-28T15:57:40;103082.53;;;10.83;46.23
62508;BME280;48556;51.972;4.624;2023-01-28T16:04:28;103080.19;;;10.57;46.01